Time;durP1;ratioP1;P1;durP2;ratioP2;P2;SDS_P1;SDS_P2;PMS_P1;PMS_P2;Temp;Humidity;BMP_temperature;BMP_pressure;BME280_temperature;BME280_humidity;BME280_pressure;Samples;Min_cycle;Max_cycle;Signal;HPM_P1;HPM_P2
2021/05/02 00:00:30;;;;;;;44.63;32.92;;;;;;;10.29;100.00;100238.59;5240488;28;20035;-82
2021/05/02 00:03:03;;;;;;;52.27;36.43;;;;;;;10.36;100.00;100239.22;5225267;28;20500;-81
2021/05/02 00:05:35;;;;;;;52.17;36.95;;;;;;;10.45;100.00;100228.38;5243320;28;20275;-82
2021/05/02 00:08:06;;;;;;;50.97;34.33;;;;;;;10.34;100.00;100230.59;5241237;28;20025;-81
2021/05/02 00:10:37;;;;;;;50.30;34.95;;;;;;;10.43;100.00;100235.44;5228188;28;20056;-81
2021/05/02 00:13:07;;;;;;;47.83;32.75;;;;;;;10.40;100.00;100232.94;5243415;28;20067;-82
2021/05/02 00:15:40;;;;;;;41.10;31.02;;;;;;;10.51;100.00;100234.22;5221386;28;20025;-81
2021/05/02 00:18:11;;;;;;;41.55;30.48;;;;;;;10.56;100.00;100231.41;5245741;28;20470;-81
2021/05/02 00:20:42;;;;;;;42.50;28.23;;;;;;;10.51;100.00;100236.00;5223787;28;20032;-81
2021/05/02 00:23:12;;;;;;;36.28;27.67;;;;;;;10.51;100.00;100236.81;5238513;28;20032;-81
2021/05/02 00:25:43;;;;;;;36.85;26.48;;;;;;;10.46;100.00;100238.78;5227456;28;20055;-82
2021/05/02 00:28:14;;;;;;;34.42;26.20;;;;;;;10.29;100.00;100240.34;5217828;28;20572;-81
2021/05/02 00:30:45;;;;;;;36.75;27.20;;;;;;;10.23;100.00;100231.03;5223815;28;20044;-81
2021/05/02 00:33:19;;;;;;;36.33;26.25;;;;;;;10.31;100.00;100235.94;5223968;28;20021;-81
2021/05/02 00:35:51;;;;;;;32.13;24.20;;;;;;;10.23;100.00;100233.66;5228610;28;20032;-82
2021/05/02 00:38:21;;;;;;;33.30;24.70;;;;;;;10.31;100.00;100230.72;5216259;28;20032;-82
2021/05/02 00:40:55;;;;;;;31.50;24.83;;;;;;;10.34;100.00;100222.75;5234312;28;20636;-80
2021/05/02 00:43:36;;;;;;;33.90;24.95;;;;;;;10.24;100.00;100235.34;5245444;28;20039;-81
2021/05/02 00:46:15;;;;;;;32.35;24.13;;;;;;;10.28;100.00;100234.31;5224706;28;20024;-81
2021/05/02 00:48:51;;;;;;;28.67;23.13;;;;;;;10.37;100.00;100233.91;5226427;28;20029;-81
2021/05/02 00:51:24;;;;;;;26.67;22.05;;;;;;;10.49;100.00;100233.44;5217318;28;20037;-81
2021/05/02 00:54:14;;;;;;;30.52;23.10;;;;;;;10.44;100.00;100231.91;5220570;28;20057;-80
2021/05/02 00:57:07;;;;;;;28.30;22.75;;;;;;;10.32;100.00;100224.59;5221843;28;20534;-81
2021/05/02 01:00:04;;;;;;;30.73;24.05;;;;;;;10.16;100.00;100228.72;5222703;28;20092;-80
2021/05/02 01:02:35;;;;;;;29.75;22.92;;;;;;;10.16;100.00;100221.72;5220918;28;20513;-82
2021/05/02 01:05:09;;;;;;;32.00;23.98;;;;;;;10.21;100.00;100222.41;5220483;28;20391;-80
2021/05/02 01:07:42;;;;;;;30.75;23.38;;;;;;;10.16;100.00;100215.66;5238185;28;20502;-81
2021/05/02 01:10:15;;;;;;;31.33;24.45;;;;;;;10.20;100.00;100218.06;5221656;28;20050;-82
2021/05/02 01:12:48;;;;;;;31.00;24.30;;;;;;;10.17;100.00;100225.19;5240721;28;20280;-81
2021/05/02 01:15:24;;;;;;;29.85;23.27;;;;;;;10.10;100.00;100215.88;5221710;28;20036;-80
2021/05/02 01:17:59;;;;;;;33.45;24.15;;;;;;;10.15;100.00;100227.03;5225143;28;20039;-81
2021/05/02 01:20:36;;;;;;;32.50;23.52;;;;;;;9.94;100.00;100223.44;5238929;28;20031;-82
2021/05/02 01:23:22;;;;;;;30.60;24.00;;;;;;;9.94;100.00;100228.66;5224759;28;20486;-80
2021/05/02 01:25:55;;;;;;;31.83;23.98;;;;;;;9.86;100.00;100233.31;5223255;28;20020;-80
2021/05/02 01:28:27;;;;;;;30.45;23.83;;;;;;;9.99;100.00;100242.38;5222580;28;20391;-81
2021/05/02 01:30:58;;;;;;;31.92;25.30;;;;;;;9.99;100.00;100228.50;5241603;28;20035;-81
2021/05/02 01:33:28;;;;;;;32.63;23.35;;;;;;;10.07;100.00;100229.06;5224888;28;20028;-81
2021/05/02 01:35:59;;;;;;;32.90;24.08;;;;;;;10.04;100.00;100229.19;5239742;28;20024;-80
2021/05/02 01:38:30;;;;;;;32.05;25.80;;;;;;;9.96;100.00;100229.44;5219425;28;20029;-81
2021/05/02 01:41:00;;;;;;;34.22;24.98;;;;;;;9.92;100.00;100229.63;5223392;28;20639;-81
2021/05/02 01:43:30;;;;;;;35.80;26.33;;;;;;;9.80;100.00;100230.09;5238839;28;20032;-80
2021/05/02 01:46:04;;;;;;;39.55;28.38;;;;;;;9.78;100.00;100222.31;5218116;28;20078;-80
2021/05/02 01:48:36;;;;;;;36.33;27.08;;;;;;;9.76;100.00;100213.72;5226327;28;20036;-82
2021/05/02 01:51:09;;;;;;;37.78;28.40;;;;;;;9.79;100.00;100223.19;5224708;28;20043;-80
2021/05/02 01:53:40;;;;;;;38.88;28.77;;;;;;;9.90;100.00;100215.78;5222058;28;20017;-82
2021/05/02 01:56:13;;;;;;;41.40;29.77;;;;;;;9.96;100.00;100218.19;5237416;28;20090;-82
2021/05/02 01:58:44;;;;;;;39.92;29.63;;;;;;;9.97;100.00;100218.09;5220144;28;20017;-82
2021/05/02 02:01:18;;;;;;;39.00;29.23;;;;;;;9.91;100.00;100212.25;5243173;28;20032;-82
2021/05/02 02:03:49;;;;;;;39.45;29.25;;;;;;;9.69;100.00;100211.38;5217650;28;20033;-81
2021/05/02 02:06:20;;;;;;;40.30;28.95;;;;;;;9.62;100.00;100215.97;5222363;28;20193;-81
2021/05/02 02:08:50;;;;;;;37.78;28.40;;;;;;;9.59;100.00;100215.25;5219169;28;20040;-81
2021/05/02 02:11:21;;;;;;;40.05;29.00;;;;;;;9.58;100.00;100208.31;5226420;28;20020;-82
2021/05/02 02:13:52;;;;;;;37.70;27.65;;;;;;;9.59;100.00;100210.03;5215329;28;20382;-80
2021/05/02 02:16:23;;;;;;;38.10;27.25;;;;;;;9.52;100.00;100208.56;5221413;28;20025;-80
2021/05/02 02:18:54;;;;;;;40.88;27.55;;;;;;;9.54;100.00;100211.97;5219240;28;20629;-80
2021/05/02 02:21:26;;;;;;;34.90;26.35;;;;;;;9.47;100.00;100215.72;5240513;28;20027;-80
2021/05/02 02:24:00;;;;;;;36.03;25.40;;;;;;;9.54;100.00;100212.81;5236629;28;20025;-80
2021/05/02 02:26:51;;;;;;;35.15;25.80;;;;;;;9.49;100.00;100213.91;5221184;28;20031;-80
2021/05/02 02:29:22;;;;;;;34.88;24.25;;;;;;;9.54;100.00;100209.34;5226922;28;20032;-80
2021/05/02 02:31:55;;;;;;;33.75;24.13;;;;;;;9.46;100.00;100219.22;5221522;28;20028;-81
2021/05/02 02:34:26;;;;;;;30.27;22.85;;;;;;;9.43;100.00;100221.94;5216687;28;20422;-81
2021/05/02 02:36:56;;;;;;;31.38;23.70;;;;;;;9.37;100.00;100220.41;5237183;28;20028;-80
2021/05/02 02:39:28;;;;;;;35.58;23.73;;;;;;;9.06;100.00;100224.16;5222131;28;20052;-81
2021/05/02 02:42:01;;;;;;;28.80;20.83;;;;;;;9.29;100.00;100221.59;5219364;28;20108;-81
2021/05/02 02:44:31;;;;;;;27.38;21.50;;;;;;;9.28;100.00;100225.13;5216564;28;20017;-81
2021/05/02 02:47:05;;;;;;;25.95;20.45;;;;;;;9.32;99.83;100224.09;5216783;28;20086;-80
2021/05/02 02:49:45;;;;;;;29.83;21.30;;;;;;;8.99;99.83;100227.88;5215207;28;20024;-80
2021/05/02 02:52:21;;;;;;;28.35;21.00;;;;;;;8.71;100.00;100226.28;5215022;28;20437;-82
2021/05/02 02:55:09;;;;;;;27.67;20.88;;;;;;;8.83;100.00;100231.91;5234352;28;20036;-81
2021/05/02 02:57:52;;;;;;;30.40;20.27;;;;;;;8.65;98.56;100227.34;5219659;28;20028;-80
2021/05/02 03:00:24;;;;;;;26.90;18.90;;;;;;;8.52;98.02;100235.59;5223366;28;20021;-80
2021/05/02 03:03:13;;;;;;;26.80;19.55;;;;;;;8.57;97.85;100233.69;5239134;28;20035;-81
2021/05/02 03:05:45;;;;;;;28.90;19.98;;;;;;;8.64;98.28;100240.41;5238457;28;20363;-80
2021/05/02 03:08:21;;;;;;;26.60;19.95;;;;;;;8.43;97.64;100228.94;5218222;28;20025;-81
2021/05/02 03:10:53;;;;;;;29.80;21.05;;;;;;;8.33;99.40;100237.06;5223340;28;20031;-80
2021/05/02 03:13:24;;;;;;;32.85;22.10;;;;;;;8.21;100.00;100240.91;5220762;28;20021;-81
2021/05/02 03:15:58;;;;;;;33.28;24.17;;;;;;;8.36;100.00;100250.03;5217313;28;20108;-81
2021/05/02 03:18:56;;;;;;;31.35;22.80;;;;;;;8.46;100.00;100241.84;5220846;28;20017;-80
2021/05/02 03:21:50;;;;;;;31.67;22.40;;;;;;;8.31;100.00;100244.09;5236038;28;20024;-81
2021/05/02 03:24:29;;;;;;;33.20;23.45;;;;;;;8.51;100.00;100239.09;5169403;28;20037;-81
2021/05/02 03:27:07;;;;;;;35.65;23.17;;;;;;;8.48;100.00;100236.59;5217897;28;20025;-81
2021/05/02 03:29:39;;;;;;;37.30;23.92;;;;;;;8.32;100.00;100249.25;5233943;28;20035;-81
2021/05/02 03:32:11;;;;;;;32.25;23.65;;;;;;;8.17;100.00;100241.88;5228346;28;20039;-80
2021/05/02 03:34:44;;;;;;;34.80;25.00;;;;;;;8.21;100.00;100238.31;5239723;28;20482;-80
2021/05/02 03:37:20;;;;;;;37.33;24.23;;;;;;;8.06;100.00;100240.53;5223178;28;20024;-80
2021/05/02 03:39:51;;;;;;;33.45;23.85;;;;;;;8.11;100.00;100244.69;5223550;28;20017;-82
2021/05/02 03:42:21;;;;;;;37.33;24.55;;;;;;;8.05;100.00;100249.22;5248973;28;20024;-80
2021/05/02 03:44:52;;;;;;;36.50;24.75;;;;;;;8.18;100.00;100253.19;5217020;28;20024;-80
2021/05/02 03:47:22;;;;;;;37.58;25.48;;;;;;;8.13;100.00;100250.69;5220813;28;20087;-81
2021/05/02 03:49:52;;;;;;;34.95;25.58;;;;;;;7.84;100.00;100253.31;5236827;28;20619;-80
2021/05/02 03:52:22;;;;;;;39.28;25.88;;;;;;;7.82;100.00;100257.72;5214086;28;20024;-80
2021/05/02 03:54:54;;;;;;;38.25;26.20;;;;;;;7.98;100.00;100256.38;5239463;28;20047;-81
2021/05/02 03:57:25;;;;;;;37.50;25.25;;;;;;;8.05;100.00;100264.84;5236855;28;20028;-80
2021/05/02 03:59:55;;;;;;;35.85;25.88;;;;;;;7.92;100.00;100264.38;5226183;28;20025;-80
2021/05/02 04:02:25;;;;;;;39.88;27.58;;;;;;;7.92;100.00;100269.56;5238361;28;20048;-81
2021/05/02 04:04:56;;;;;;;42.42;28.40;;;;;;;7.87;100.00;100270.59;5241443;28;20478;-81
2021/05/02 04:07:26;;;;;;;42.75;27.88;;;;;;;7.78;100.00;100269.13;5220022;28;20562;-81
2021/05/02 04:09:56;;;;;;;44.63;29.20;;;;;;;7.83;100.00;100275.03;5240395;28;20024;-81
2021/05/02 04:12:27;;;;;;;43.95;30.50;;;;;;;7.86;100.00;100279.31;5225195;28;20055;-81
2021/05/02 04:14:57;;;;;;;45.85;30.38;;;;;;;7.83;100.00;100277.63;5219700;28;20032;-81
2021/05/02 04:17:27;;;;;;;45.72;29.90;;;;;;;7.76;100.00;100283.94;5222042;28;20092;-81
2021/05/02 04:19:58;;;;;;;47.63;31.92;;;;;;;7.77;100.00;100290.84;5223101;28;20505;-80
2021/05/02 04:22:30;;;;;;;49.65;32.55;;;;;;;7.63;100.00;100290.38;5238502;28;20025;-81
2021/05/02 04:25:01;;;;;;;51.22;34.47;;;;;;;7.71;100.00;100293.59;5219245;28;20486;-81
2021/05/02 04:27:31;;;;;;;52.03;34.67;;;;;;;7.86;100.00;100298.34;5239316;28;20032;-81
2021/05/02 04:30:01;;;;;;;54.15;34.92;;;;;;;7.82;100.00;100306.28;5236701;28;20086;-80
2021/05/02 04:32:32;;;;;;;54.60;35.20;;;;;;;7.87;100.00;100302.66;5222325;28;20035;-81
2021/05/02 04:35:03;;;;;;;53.13;34.85;;;;;;;8.01;100.00;100310.91;5221661;28;20028;-81
2021/05/02 04:37:34;;;;;;;57.28;36.28;;;;;;;7.98;100.00;100311.00;5238827;28;20021;-81
2021/05/02 04:40:05;;;;;;;56.70;35.83;;;;;;;8.09;100.00;100314.16;5226130;28;20032;-81
2021/05/02 04:42:36;;;;;;;55.10;36.28;;;;;;;8.16;100.00;100315.66;5222702;28;20029;-81
2021/05/02 04:45:07;;;;;;;54.58;35.72;;;;;;;8.14;100.00;100320.06;5222394;28;20029;-81
2021/05/02 04:47:37;;;;;;;52.55;35.30;;;;;;;8.30;100.00;100330.91;5236852;28;20032;-81
2021/05/02 04:50:08;;;;;;;53.33;35.45;;;;;;;8.13;100.00;100322.72;5235466;28;20032;-81
2021/05/02 04:52:40;;;;;;;54.58;35.55;;;;;;;8.14;100.00;100330.47;5220123;28;20035;-80
2021/05/02 04:55:10;;;;;;;50.50;33.97;;;;;;;8.35;100.00;100329.03;5216962;28;20044;-81
2021/05/02 04:57:41;;;;;;;51.70;33.83;;;;;;;8.24;100.00;100328.50;5217666;28;20034;-81
2021/05/02 05:00:11;;;;;;;47.55;33.72;;;;;;;8.17;100.00;100326.91;5224524;28;20036;-80
2021/05/02 05:02:42;;;;;;;47.95;31.95;;;;;;;8.39;100.00;100341.88;5222389;28;20025;-80
2021/05/02 05:05:12;;;;;;;45.47;30.77;;;;;;;8.32;100.00;100339.50;5220105;28;20040;-81
2021/05/02 05:07:42;;;;;;;47.63;32.83;;;;;;;8.41;100.00;100347.88;5228898;28;20042;-81
2021/05/02 05:10:13;;;;;;;46.50;32.72;;;;;;;8.32;100.00;100349.91;5224910;28;20031;-81
2021/05/02 05:12:43;;;;;;;48.85;32.08;;;;;;;8.33;100.00;100349.88;5222322;28;20091;-81
2021/05/02 05:15:13;;;;;;;48.90;32.70;;;;;;;8.32;100.00;100350.78;5219314;28;20025;-81
2021/05/02 05:17:44;;;;;;;46.75;31.52;;;;;;;8.20;100.00;100358.13;5218257;28;20021;-81
2021/05/02 05:20:15;;;;;;;44.85;31.65;;;;;;;8.28;100.00;100359.59;5239751;28;20025;-81
2021/05/02 05:22:46;;;;;;;47.65;33.30;;;;;;;8.32;100.00;100358.59;5218661;28;20031;-80
2021/05/02 05:25:16;;;;;;;43.97;29.98;;;;;;;8.26;100.00;100361.41;5222543;28;20028;-81
2021/05/02 05:27:47;;;;;;;45.38;30.63;;;;;;;8.32;100.00;100356.00;5218919;28;20017;-80
2021/05/02 05:30:17;;;;;;;43.75;30.70;;;;;;;8.36;100.00;100359.38;5229526;28;20113;-81
2021/05/02 05:32:47;;;;;;;45.15;29.73;;;;;;;8.39;100.00;100365.31;5222155;28;20056;-81
2021/05/02 05:35:18;;;;;;;42.15;28.42;;;;;;;8.28;100.00;100375.22;5240736;28;20025;-81
2021/05/02 05:37:48;;;;;;;42.28;28.27;;;;;;;8.07;100.00;100373.19;5222354;28;20111;-80
2021/05/02 05:40:18;;;;;;;40.38;27.58;;;;;;;8.13;100.00;100375.63;5226986;28;20028;-81
2021/05/02 05:42:49;;;;;;;39.25;27.45;;;;;;;8.24;100.00;100381.38;5222453;28;20609;-81
2021/05/02 05:45:20;;;;;;;38.88;26.55;;;;;;;8.31;100.00;100380.31;5221719;28;20146;-80
2021/05/02 05:47:52;;;;;;;40.38;28.15;;;;;;;8.46;100.00;100392.91;5235726;28;20029;-81
2021/05/02 05:50:24;;;;;;;35.65;25.90;;;;;;;8.65;99.97;100388.84;5221421;28;20016;-80
2021/05/02 05:52:55;;;;;;;41.15;27.52;;;;;;;8.87;99.20;100389.84;5217459;28;20017;-80
2021/05/02 05:55:26;;;;;;;37.10;26.90;;;;;;;9.07;97.66;100390.06;5219894;28;20036;-81
2021/05/02 05:57:59;;;;;;;35.90;25.42;;;;;;;9.04;97.99;100387.56;5242473;28;20028;-81
2021/05/02 06:00:29;;;;;;;31.27;23.42;;;;;;;9.08;97.18;100389.16;5239731;28;20033;-81
2021/05/02 06:02:59;;;;;;;34.20;22.25;;;;;;;9.01;95.58;100386.78;5237925;28;20043;-80
2021/05/02 06:05:30;;;;;;;30.55;22.88;;;;;;;9.23;95.84;100397.34;5237014;28;20099;-81
2021/05/02 06:08:00;;;;;;;28.05;20.48;;;;;;;9.01;95.09;100395.50;5219268;28;20032;-81
2021/05/02 06:10:31;;;;;;;26.60;20.38;;;;;;;9.17;94.75;100396.69;5224687;28;20096;-81
2021/05/02 06:13:01;;;;;;;27.92;20.50;;;;;;;9.30;95.08;100401.44;5220745;28;20066;-80
2021/05/02 06:15:35;;;;;;;27.33;20.42;;;;;;;9.28;94.71;100405.03;5238196;28;20029;-81
2021/05/02 06:18:05;;;;;;;25.30;18.85;;;;;;;9.14;94.98;100409.84;5221822;28;20026;-81
2021/05/02 06:20:35;;;;;;;27.67;18.90;;;;;;;9.11;93.62;100403.88;5220366;28;20119;-80
2021/05/02 06:23:06;;;;;;;24.95;18.00;;;;;;;9.23;93.19;100422.56;5219273;28;20064;-81
2021/05/02 06:25:36;;;;;;;25.23;19.25;;;;;;;9.21;94.04;100422.63;5220857;28;20028;-81
2021/05/02 06:28:06;;;;;;;23.50;17.95;;;;;;;9.19;94.14;100427.03;5238255;28;20059;-81
2021/05/02 06:30:37;;;;;;;24.65;18.00;;;;;;;9.03;95.17;100422.34;5225657;28;20041;-81
2021/05/02 06:33:07;;;;;;;25.02;17.10;;;;;;;8.96;93.65;100420.84;5237214;28;20048;-81
2021/05/02 06:35:38;;;;;;;21.92;16.75;;;;;;;9.04;93.59;100416.22;5239616;28;20104;-80
2021/05/02 06:38:08;;;;;;;22.05;16.67;;;;;;;9.11;93.88;100424.72;5217395;28;20097;-81
2021/05/02 06:40:38;;;;;;;19.38;14.85;;;;;;;8.82;93.01;100427.38;5238816;28;20757;-80
2021/05/02 06:43:08;;;;;;;19.92;13.40;;;;;;;8.76;91.91;100428.41;5223647;28;20033;-81
2021/05/02 06:45:39;;;;;;;19.75;13.55;;;;;;;8.88;91.38;100428.03;5219959;28;20380;-80
2021/05/02 06:48:09;;;;;;;18.65;13.70;;;;;;;8.97;90.54;100422.56;5237252;28;20112;-81
2021/05/02 06:50:40;;;;;;;18.70;14.10;;;;;;;9.19;90.70;100434.00;5241022;28;20021;-81
2021/05/02 06:53:11;;;;;;;17.90;13.48;;;;;;;9.08;89.65;100420.44;5240783;28;20056;-80
2021/05/02 06:55:41;;;;;;;21.42;14.23;;;;;;;9.14;88.83;100425.47;5219269;28;20059;-80
2021/05/02 06:58:12;;;;;;;17.17;12.30;;;;;;;9.26;87.47;100430.28;5232597;28;20048;-80
2021/05/02 07:00:43;;;;;;;17.55;12.43;;;;;;;9.20;86.68;100433.97;5238137;28;20108;-80
2021/05/02 07:03:14;;;;;;;16.83;13.32;;;;;;;9.31;87.87;100428.41;5237406;28;20084;-81
2021/05/02 07:05:45;;;;;;;15.90;12.70;;;;;;;9.58;87.03;100432.66;5216162;28;20446;-81
2021/05/02 07:08:15;;;;;;;18.83;12.88;;;;;;;9.77;86.21;100438.97;5219281;28;20032;-80
2021/05/02 07:10:45;;;;;;;16.52;13.20;;;;;;;9.86;86.83;100434.28;5225815;28;20063;-80
2021/05/02 07:13:16;;;;;;;18.23;13.00;;;;;;;10.08;86.22;100435.28;5238583;28;20102;-81
2021/05/02 07:15:46;;;;;;;20.52;12.23;;;;;;;10.14;84.78;100442.88;5238418;28;20060;-80
2021/05/02 07:18:17;;;;;;;15.10;12.25;;;;;;;10.22;83.83;100442.59;5217289;28;20031;-81
2021/05/02 07:20:50;;;;;;;16.13;11.50;;;;;;;10.05;83.67;100429.31;5218624;28;20461;-80
2021/05/02 07:23:20;;;;;;;13.80;11.68;;;;;;;10.11;84.04;100440.38;5236223;28;20098;-81
2021/05/02 07:25:51;;;;;;;16.05;11.95;;;;;;;10.30;83.84;100437.94;5241998;28;20401;-80
2021/05/02 07:28:21;;;;;;;17.35;12.25;;;;;;;10.21;83.53;100449.63;5244111;28;20486;-81
2021/05/02 07:30:51;;;;;;;17.25;13.00;;;;;;;10.10;84.74;100453.50;5219751;28;20028;-80
2021/05/02 07:33:23;;;;;;;15.65;12.75;;;;;;;10.33;84.62;100453.53;5240349;28;20099;-81
2021/05/02 07:35:54;;;;;;;16.40;13.00;;;;;;;10.13;84.09;100458.63;5234654;28;20050;-80
2021/05/02 07:38:28;;;;;;;15.77;12.35;;;;;;;10.34;83.40;100456.06;5218087;28;20021;-80
2021/05/02 07:40:59;;;;;;;19.00;13.50;;;;;;;10.26;83.91;100454.66;5241353;28;20023;-81
2021/05/02 07:43:31;;;;;;;16.90;13.68;;;;;;;10.09;85.34;100459.63;5215656;28;20036;-80
2021/05/02 07:46:02;;;;;;;20.23;14.52;;;;;;;10.24;85.64;100459.06;5217811;28;20116;-80
2021/05/02 07:48:34;;;;;;;16.67;13.65;;;;;;;10.65;84.59;100461.03;5218499;28;20035;-80
2021/05/02 07:51:05;;;;;;;17.80;13.82;;;;;;;10.80;81.71;100456.06;5225527;28;20056;-81
2021/05/02 07:53:35;;;;;;;17.17;13.40;;;;;;;11.14;81.32;100452.06;5236160;28;20048;-81
2021/05/02 07:56:06;;;;;;;17.48;12.40;;;;;;;11.31;79.21;100460.09;5212328;28;20115;-80
2021/05/02 07:58:36;;;;;;;17.67;12.27;;;;;;;11.48;78.03;100465.47;5216627;28;20029;-81
2021/05/02 08:01:06;;;;;;;16.08;11.50;;;;;;;11.25;77.59;100455.09;5241082;28;20528;-80
2021/05/02 08:03:36;;;;;;;14.68;11.38;;;;;;;11.48;76.12;100462.88;5222732;28;20108;-81
2021/05/02 08:06:07;;;;;;;14.43;10.90;;;;;;;11.97;74.60;100459.09;5239457;28;20465;-81
2021/05/02 08:08:37;;;;;;;16.70;11.38;;;;;;;12.17;73.53;100457.31;5233465;28;20028;-80
2021/05/02 08:11:08;;;;;;;14.38;11.52;;;;;;;11.67;75.10;100466.50;5219110;28;20029;-80
2021/05/02 08:13:38;;;;;;;14.23;11.98;;;;;;;11.39;78.07;100465.00;5223090;28;20052;-80
2021/05/02 08:16:08;;;;;;;15.15;11.40;;;;;;;12.36;76.86;100462.59;5233361;28;20647;-80
2021/05/02 08:18:39;;;;;;;12.18;9.65;;;;;;;11.82;76.60;100464.97;5225754;28;20021;-81
2021/05/02 08:21:10;;;;;;;11.70;9.65;;;;;;;12.08;74.65;100462.94;5221867;28;20640;-81
2021/05/02 08:23:41;;;;;;;10.85;8.82;;;;;;;12.44;74.64;100466.56;5243296;28;20021;-80
2021/05/02 08:26:12;;;;;;;11.50;8.45;;;;;;;11.70;75.53;100463.72;5238310;28;20616;-79
2021/05/02 08:28:43;;;;;;;10.25;8.38;;;;;;;11.80;76.01;100475.50;5226845;28;20025;-80
2021/05/02 08:31:13;;;;;;;9.25;7.45;;;;;;;12.00;73.67;100470.31;5238353;28;20036;-80
2021/05/02 08:33:44;;;;;;;8.93;6.95;;;;;;;12.22;73.09;100467.56;5233656;28;20032;-80
2021/05/02 08:36:17;;;;;;;9.43;7.00;;;;;;;12.50;72.82;100466.28;5215951;28;20406;-80
2021/05/02 08:38:47;;;;;;;8.45;6.97;;;;;;;11.97;72.63;100467.78;5220866;28;20486;-79
2021/05/02 08:41:18;;;;;;;10.88;7.53;;;;;;;11.85;73.55;100470.94;5226303;28;20027;-80
2021/05/02 08:43:59;;;;;;;8.48;6.90;;;;;;;11.80;74.86;100472.88;5223409;28;20027;-80
2021/05/02 08:46:30;;;;;;;8.27;6.22;;;;;;;11.90;74.45;100474.22;5223558;28;20132;-80
2021/05/02 08:49:03;;;;;;;7.97;6.32;;;;;;;12.66;72.78;100471.69;5241827;28;20088;-81
2021/05/02 08:51:33;;;;;;;8.45;6.20;;;;;;;12.14;72.78;100472.31;5219888;28;20025;-80
2021/05/02 08:54:04;;;;;;;10.25;6.80;;;;;;;12.05;74.13;100468.31;5221935;28;20525;-80
2021/05/02 08:56:37;;;;;;;8.80;6.80;;;;;;;12.45;73.63;100473.50;5225796;28;20055;-81
2021/05/02 08:59:09;;;;;;;10.15;7.10;;;;;;;11.93;73.72;100473.25;5239398;28;20039;-80
2021/05/02 09:01:40;;;;;;;9.60;7.00;;;;;;;12.61;73.90;100465.81;5240257;28;20029;-80
2021/05/02 09:04:11;;;;;;;10.18;6.60;;;;;;;13.07;70.29;100467.09;5215187;28;20024;-79
2021/05/02 09:06:42;;;;;;;9.52;6.53;;;;;;;13.14;70.31;100460.66;5223195;28;20028;-81
2021/05/02 09:09:12;;;;;;;8.63;6.40;;;;;;;13.33;69.21;100460.59;5221546;28;20115;-81
2021/05/02 09:11:45;;;;;;;9.82;6.57;;;;;;;13.01;70.74;100466.53;5225368;28;20811;-81
2021/05/02 09:14:16;;;;;;;9.95;6.80;;;;;;;12.92;71.48;100464.31;5205033;28;20111;-81
2021/05/02 09:16:52;;;;;;;9.70;6.80;;;;;;;13.40;71.77;100464.66;5242526;28;20525;-81
2021/05/02 09:19:25;;;;;;;11.57;6.72;;;;;;;12.48;74.50;100468.13;5219576;28;20021;-81
2021/05/02 09:22:10;;;;;;;10.63;7.22;;;;;;;11.99;74.06;100465.94;5220468;28;20028;-81
2021/05/02 09:24:41;;;;;;;8.57;5.90;;;;;;;11.94;74.01;100474.94;5222737;28;20024;-80
2021/05/02 09:27:16;;;;;;;7.82;6.00;;;;;;;12.53;73.53;100471.41;5218757;28;20115;-79
2021/05/02 09:29:47;;;;;;;7.18;5.78;;;;;;;12.50;71.82;100462.81;5216558;28;20029;-80
2021/05/02 09:32:22;;;;;;;7.03;4.85;;;;;;;12.55;70.60;100463.44;5238674;28;20032;-81
2021/05/02 09:34:54;;;;;;;8.95;5.20;;;;;;;12.21;70.87;100469.38;5237176;28;20017;-80
2021/05/02 09:37:38;;;;;;;7.63;5.43;;;;;;;12.08;73.50;100467.31;5233685;28;20059;-80
2021/05/02 09:40:15;;;;;;;8.70;5.65;;;;;;;12.32;72.99;100471.50;5211325;28;20087;-79
2021/05/02 09:42:52;;;;;;;10.27;6.00;;;;;;;13.04;71.86;100469.03;5212789;28;20036;-79
2021/05/02 09:45:23;;;;;;;8.77;6.10;;;;;;;12.99;71.60;100468.38;5244209;28;20393;-79
2021/05/02 09:47:53;;;;;;;10.23;6.00;;;;;;;13.02;70.73;100465.59;5222248;28;20032;-80
2021/05/02 09:50:33;;;;;;;9.80;5.53;;;;;;;13.66;69.71;100459.81;5236929;28;20147;-79
2021/05/02 09:53:06;;;;;;;7.22;5.07;;;;;;;13.34;69.05;100467.53;5243133;28;20060;-80
2021/05/02 09:55:39;;;;;;;6.47;4.72;;;;;;;12.54;69.26;100469.63;5218628;28;20028;-81
2021/05/02 09:58:17;;;;;;;7.20;5.13;;;;;;;12.48;70.73;100462.88;5238463;23;20106;-78
2021/05/02 10:00:50;;;;;;;8.73;4.90;;;;;;;12.72;69.92;100460.91;5209394;28;20425;-79
2021/05/02 10:03:23;;;;;;;9.07;5.05;;;;;;;13.00;70.20;100468.31;5214408;28;20370;-79
2021/05/02 10:06:06;;;;;;;8.55;5.68;;;;;;;12.98;68.37;100464.06;5211322;28;20029;-79
2021/05/02 10:08:39;;;;;;;8.70;5.43;;;;;;;13.23;69.25;100454.94;5199517;28;20682;-79
2021/05/02 10:11:14;;;;;;;11.45;6.10;;;;;;;13.06;70.78;100461.94;5201635;28;20084;-80
2021/05/02 10:13:44;;;;;;;8.77;6.23;;;;;;;13.09;70.05;100449.50;5192497;28;20025;-79
2021/05/02 10:16:15;;;;;;;10.55;6.28;;;;;;;13.07;71.96;100461.00;5193613;28;20044;-79
2021/05/02 10:18:49;;;;;;;8.77;5.97;;;;;;;12.82;72.02;100462.19;5193538;28;20645;-79
2021/05/02 10:21:20;;;;;;;12.55;6.85;;;;;;;12.29;73.67;100461.16;5190897;28;20517;-79
2021/05/02 10:23:51;;;;;;;9.45;5.72;;;;;;;11.69;74.73;100464.66;5193016;28;20032;-77
2021/05/02 10:26:21;;;;;;;10.65;5.95;;;;;;;11.41;76.06;100479.75;5189892;28;20387;-79
2021/05/02 10:28:52;;;;;;;10.73;6.00;;;;;;;11.32;77.90;100469.66;5191544;28;20029;-78
2021/05/02 10:31:29;;;;;;;9.05;6.25;;;;;;;11.18;79.28;100479.81;5195292;28;20051;-78
2021/05/02 10:34:00;;;;;;;8.63;6.68;;;;;;;11.12;81.12;100479.22;5213491;28;20229;-78
2021/05/02 10:36:30;;;;;;;11.25;7.53;;;;;;;10.86;81.75;100478.50;5211904;28;20475;-79
2021/05/02 10:39:01;;;;;;;12.10;7.32;;;;;;;11.02;81.21;100480.47;5210952;28;20151;-79
2021/05/02 10:41:36;;;;;;;14.57;7.80;;;;;;;10.92;81.51;100483.50;5218733;28;20021;-79
2021/05/02 10:44:12;;;;;;;10.23;7.22;;;;;;;10.77;81.73;100486.69;5214413;28;20052;-78
2021/05/02 10:46:42;;;;;;;11.80;7.95;;;;;;;11.01;81.59;100489.22;5211977;28;20108;-78
2021/05/02 10:49:19;;;;;;;11.38;7.70;;;;;;;11.20;80.03;100491.06;5214238;28;20131;-78
2021/05/02 10:51:52;;;;;;;11.85;7.70;;;;;;;11.54;81.01;100483.56;5210715;28;20036;-79
2021/05/02 10:54:39;;;;;;;11.48;7.45;;;;;;;11.74;78.45;100488.88;5214762;28;20497;-78
2021/05/02 10:57:33;;;;;;;9.55;6.55;;;;;;;12.61;75.38;100484.16;5192879;28;585804;-78
2021/05/02 11:00:13;;;;;;;9.18;5.93;;;;;;;13.19;73.69;100478.78;5181742;28;20058;-79
2021/05/02 11:02:50;;;;;;;10.90;6.70;;;;;;;12.89;72.17;100485.47;5217354;28;20075;-78
2021/05/02 11:05:22;;;;;;;10.20;6.53;;;;;;;12.72;71.79;100482.75;5214349;28;20033;-78
2021/05/02 11:07:56;;;;;;;12.23;7.32;;;;;;;12.69;73.19;100482.91;5212214;28;20036;-79
2021/05/02 11:10:50;;;;;;;14.98;8.07;;;;;;;13.05;74.52;100489.09;5214172;28;20036;-79
2021/05/02 11:13:28;;;;;;;12.10;7.57;;;;;;;13.18;74.47;100488.44;5208389;28;20037;-79
2021/05/02 11:16:21;;;;;;;11.23;7.93;;;;;;;12.95;74.27;100490.44;5199091;28;20021;-80
2021/05/02 11:18:51;;;;;;;11.05;7.40;;;;;;;12.80;74.30;100485.03;5211925;28;20624;-78
2021/05/02 11:21:24;;;;;;;10.05;7.18;;;;;;;12.73;75.21;100494.06;5209604;28;20116;-78
2021/05/02 11:24:00;;;;;;;11.48;6.97;;;;;;;12.40;74.94;100495.59;5215439;28;20025;-78
2021/05/02 11:29:52;;;;;;;10.38;6.63;;;;;;;12.77;74.39;100501.75;5123456;28;20136;-81
2021/05/02 11:32:36;;;;;;;9.57;6.53;;;;;;;12.46;73.83;100506.66;5209021;28;20067;-80
2021/05/02 11:35:09;;;;;;;9.73;6.80;;;;;;;12.83;73.76;100506.69;5205021;28;20035;-78
2021/05/02 11:37:53;;;;;;;7.82;6.15;;;;;;;12.87;73.67;100508.28;5202493;28;20514;-79
2021/05/02 11:40:23;;;;;;;13.27;6.05;;;;;;;13.16;73.30;100499.94;5215939;28;20375;-79